createdAt,value
2023-02-02T00:02:02.837Z,2.10
2023-02-02T00:04:32.632Z,2.20
2023-02-02T00:06:59.933Z,2.20
2023-02-02T00:09:30.471Z,2.20
2023-02-02T00:11:58.255Z,2.30
2023-02-02T00:14:25.278Z,2.20
2023-02-02T00:16:53.981Z,2.20
2023-02-02T00:19:31.646Z,2.20
2023-02-02T00:21:58.776Z,2.20
2023-02-02T00:24:25.572Z,2.20
2023-02-02T00:26:57.402Z,2.10
2023-02-02T00:29:29.728Z,2.20
2023-02-02T00:31:57.198Z,2.10
2023-02-02T00:34:24.592Z,2.20
2023-02-02T00:36:51.625Z,2.20
2023-02-02T00:39:21.510Z,2.10
2023-02-02T00:41:48.637Z,2.20
2023-02-02T00:44:34.237Z,2.30
2023-02-02T00:47:01.050Z,2.20
2023-02-02T00:49:27.797Z,2.20
2023-02-02T00:51:54.604Z,2.20
2023-02-02T00:54:21.755Z,2.20
2023-02-02T00:56:48.584Z,2.20
2023-02-02T00:59:15.358Z,2.20
2023-02-02T01:01:42.082Z,2.20
2023-02-02T01:04:08.897Z,2.30
2023-02-02T01:06:35.905Z,2.30
2023-02-02T01:09:03.058Z,2.20
2023-02-02T01:11:30.987Z,2.10
2023-02-02T01:13:58.074Z,2.10
2023-02-02T01:16:25.275Z,2.10
2023-02-02T01:18:52.406Z,2.10
2023-02-02T01:21:19.616Z,2.10
2023-02-02T01:23:46.466Z,2.10
2023-02-02T01:26:14.299Z,2.10
2023-02-02T01:28:41.616Z,2.10
2023-02-02T01:31:16.764Z,2.10
2023-02-02T01:33:45.003Z,2.10
2023-02-02T01:36:15.450Z,2.10
2023-02-02T01:38:42.542Z,2.00
2023-02-02T01:41:13.643Z,2.00
2023-02-02T01:43:43.981Z,2.10
2023-02-02T01:46:24.637Z,2.10
2023-02-02T01:48:53.843Z,2.10
2023-02-02T01:51:24.092Z,2.10
2023-02-02T01:53:53.722Z,2.00
2023-02-02T01:56:36.644Z,2.10
2023-02-02T01:59:04.658Z,2.10
2023-02-02T02:01:31.771Z,2.10
2023-02-02T02:03:58.968Z,2.00
2023-02-02T02:06:26.143Z,2.10
2023-02-02T02:09:00.285Z,2.00
2023-02-02T02:11:27.289Z,2.10
2023-02-02T02:14:32.653Z,2.00
2023-02-02T02:17:22.311Z,2.00
2023-02-02T02:20:38.993Z,2.00
2023-02-02T02:23:27.116Z,2.00
2023-02-02T02:26:21.454Z,2.00
2023-02-02T02:29:25.396Z,2.10
2023-02-02T02:32:16.699Z,2.10
2023-02-02T02:34:56.745Z,2.10
2023-02-02T02:37:39.784Z,2.10
2023-02-02T02:40:28.348Z,2.10
2023-02-02T02:42:59.439Z,2.10
2023-02-02T02:45:28.009Z,2.10
2023-02-02T02:47:55.370Z,2.10
2023-02-02T02:50:23.076Z,2.20
2023-02-02T02:52:59.864Z,2.10
2023-02-02T02:55:32.913Z,2.20
2023-02-02T02:58:07.996Z,2.10
2023-02-02T03:00:44.009Z,2.10
2023-02-02T03:03:27.446Z,2.20
2023-02-02T03:06:19.797Z,2.10
2023-02-02T03:08:54.233Z,2.10
2023-02-02T03:11:21.428Z,2.10
2023-02-02T03:13:48.938Z,2.20
2023-02-02T03:16:16.527Z,2.20
2023-02-02T03:18:43.605Z,2.10
2023-02-02T03:21:10.430Z,2.10
2023-02-02T03:23:37.346Z,2.10
2023-02-02T03:26:04.270Z,2.10
2023-02-02T03:28:32.150Z,2.10
2023-02-02T03:31:01.440Z,2.20
2023-02-02T03:33:28.593Z,2.10
2023-02-02T03:35:55.288Z,2.20
2023-02-02T03:38:22.049Z,2.10
2023-02-02T03:40:48.777Z,2.10
2023-02-02T03:43:22.436Z,2.10
2023-02-02T03:45:55.061Z,2.10
2023-02-02T03:48:21.748Z,2.10
2023-02-02T03:50:48.447Z,2.00
2023-02-02T03:53:15.152Z,2.10
2023-02-02T03:55:41.975Z,2.10
2023-02-02T03:58:08.698Z,2.10
2023-02-02T04:00:35.487Z,2.10
2023-02-02T04:03:02.282Z,2.10
2023-02-02T04:05:29.198Z,2.20
2023-02-02T04:07:55.951Z,2.10
2023-02-02T04:10:22.971Z,2.10
2023-02-02T04:12:49.781Z,2.00
2023-02-02T04:15:16.574Z,2.00
2023-02-02T04:17:43.480Z,2.10
2023-02-02T04:20:11.260Z,2.00
2023-02-02T04:22:38.018Z,2.00
2023-02-02T04:25:05.080Z,2.00
2023-02-02T04:27:33.967Z,2.00
2023-02-02T04:30:00.909Z,2.00
2023-02-02T04:32:27.639Z,2.00
2023-02-02T04:34:54.339Z,2.00
2023-02-02T04:37:21.099Z,2.00
2023-02-02T04:39:48.689Z,2.00
2023-02-02T04:42:15.483Z,1.90
2023-02-02T04:44:44.029Z,2.00
2023-02-02T04:47:10.711Z,2.00
2023-02-02T04:49:37.929Z,2.00
2023-02-02T04:52:04.900Z,2.00
2023-02-02T04:54:32.318Z,2.10
2023-02-02T04:56:59.029Z,1.90
2023-02-02T04:59:28.586Z,2.00
2023-02-02T05:01:56.436Z,2.10
2023-02-02T05:04:23.220Z,2.10
2023-02-02T05:06:49.941Z,2.00
2023-02-02T05:09:16.796Z,2.00
2023-02-02T05:11:44.576Z,2.10
2023-02-02T05:14:12.091Z,2.10
2023-02-02T05:16:39.712Z,2.00
2023-02-02T05:19:06.482Z,1.90
2023-02-02T05:21:33.261Z,1.90
2023-02-02T05:24:01.485Z,1.90
2023-02-02T05:26:28.232Z,1.90
2023-02-02T05:28:56.038Z,1.90
2023-02-02T05:31:22.843Z,1.90
2023-02-02T05:33:49.639Z,1.90
2023-02-02T05:36:16.333Z,1.90
2023-02-02T05:38:43.056Z,1.90
2023-02-02T05:41:09.835Z,1.90
2023-02-02T05:43:36.717Z,1.90
2023-02-02T05:46:04.043Z,1.90
2023-02-02T05:48:30.880Z,1.90
2023-02-02T05:51:18.760Z,1.90
2023-02-02T05:53:46.180Z,1.90
2023-02-02T05:56:13.485Z,2.00
2023-02-02T05:58:40.297Z,2.00
2023-02-02T06:01:07.209Z,2.00
2023-02-02T06:03:34.142Z,2.00
2023-02-02T06:06:01.092Z,2.00
2023-02-02T06:08:27.894Z,2.00
2023-02-02T06:10:54.658Z,2.00
2023-02-02T06:13:22.143Z,2.00
2023-02-02T06:15:49.360Z,1.90
2023-02-02T06:18:16.164Z,2.00
2023-02-02T06:20:42.967Z,1.90
2023-02-02T06:23:09.801Z,2.00
2023-02-02T06:25:36.499Z,2.00
2023-02-02T06:28:03.547Z,2.00
2023-02-02T06:30:30.333Z,2.00
2023-02-02T06:32:59.396Z,2.00
2023-02-02T06:35:26.433Z,2.00
2023-02-02T06:37:53.740Z,2.10
2023-02-02T06:40:20.618Z,2.10
2023-02-02T06:42:47.289Z,2.10
2023-02-02T06:45:14.005Z,2.10
2023-02-02T06:47:40.819Z,2.20
2023-02-02T06:50:08.802Z,2.20
2023-02-02T06:52:35.599Z,2.30
2023-02-02T06:55:02.320Z,2.30
2023-02-02T06:57:29.076Z,2.30
2023-02-02T06:59:55.855Z,2.40
2023-02-02T07:02:23.504Z,2.30
2023-02-02T07:04:51.197Z,2.30
2023-02-02T07:07:17.934Z,2.40
2023-02-02T07:09:44.644Z,2.40
2023-02-02T07:12:11.447Z,2.40
2023-02-02T07:14:38.287Z,2.60
2023-02-02T07:17:05.319Z,2.70
2023-02-02T07:19:32.183Z,2.70
2023-02-02T07:21:59.048Z,2.80
2023-02-02T07:24:27.554Z,2.90
2023-02-02T07:26:56.775Z,2.90
2023-02-02T07:29:23.579Z,2.90
2023-02-02T07:31:50.384Z,2.90
2023-02-02T07:34:17.130Z,3.00
2023-02-02T07:36:43.821Z,3.10
2023-02-02T07:39:12.056Z,3.00
2023-02-02T07:41:39.019Z,3.00
2023-02-02T07:44:07.029Z,2.90
2023-02-02T07:46:33.930Z,2.80
2023-02-02T07:49:00.944Z,2.90
2023-02-02T07:51:27.693Z,2.90
2023-02-02T07:53:58.464Z,3.00
2023-02-02T07:56:28.160Z,3.20
2023-02-02T07:58:56.561Z,3.40
2023-02-02T08:01:26.109Z,3.90
2023-02-02T08:03:55.064Z,4.10
2023-02-02T08:06:26.078Z,4.40
2023-02-02T08:08:52.765Z,4.50
2023-02-02T08:11:21.608Z,4.40
2023-02-02T08:13:56.993Z,4.20
2023-02-02T08:16:24.895Z,4.40
2023-02-02T08:18:52.254Z,5.00
2023-02-02T08:21:19.727Z,5.80
2023-02-02T08:23:47.325Z,6.40
2023-02-02T08:26:18.816Z,6.30
2023-02-02T08:28:49.089Z,5.80
2023-02-02T08:31:25.209Z,5.40
2023-02-02T08:33:53.990Z,5.20
2023-02-02T08:36:22.861Z,5.10
2023-02-02T08:38:50.020Z,4.90
2023-02-02T08:41:19.163Z,4.60
2023-02-02T08:43:46.038Z,4.60
2023-02-02T08:46:15.005Z,4.50
2023-02-02T08:48:42.243Z,4.50
2023-02-02T08:51:11.636Z,4.70
2023-02-02T08:53:38.955Z,4.50
2023-02-02T08:56:09.478Z,4.50
2023-02-02T08:58:37.422Z,4.50
2023-02-02T09:01:09.297Z,4.40
2023-02-02T09:03:38.911Z,4.40
2023-02-02T09:06:13.932Z,4.30
2023-02-02T09:08:41.430Z,4.30
2023-02-02T09:11:10.960Z,4.40
2023-02-02T09:13:38.830Z,4.40
2023-02-02T09:16:08.446Z,4.60
2023-02-02T09:18:35.352Z,4.80
2023-02-02T09:21:05.401Z,4.80
2023-02-02T09:23:37.574Z,4.90
2023-02-02T09:26:25.844Z,4.90
2023-02-02T09:28:55.385Z,4.80
2023-02-02T09:31:22.858Z,4.80
2023-02-02T09:33:49.867Z,4.70
2023-02-02T09:36:20.397Z,4.50
2023-02-02T09:38:48.159Z,4.40
2023-02-02T09:41:45.994Z,4.20
2023-02-02T09:44:47.761Z,4.10
2023-02-02T09:47:34.812Z,4.10
2023-02-02T09:50:38.200Z,3.90
2023-02-02T09:53:26.454Z,3.80
2023-02-02T09:55:56.776Z,3.80
2023-02-02T09:58:39.840Z,3.80
2023-02-02T10:01:30.206Z,4.00
2023-02-02T10:04:21.656Z,4.00
2023-02-02T10:06:53.654Z,4.00
2023-02-02T10:09:43.537Z,3.80
2023-02-02T10:12:31.898Z,3.80
2023-02-02T10:15:13.742Z,3.70
2023-02-02T10:18:18.515Z,3.70
2023-02-02T10:20:56.212Z,3.80
2023-02-02T10:23:28.791Z,3.70
2023-02-02T10:26:19.883Z,3.90
2023-02-02T10:28:58.238Z,4.10
2023-02-02T10:31:41.003Z,4.40
2023-02-02T10:34:19.880Z,4.60
2023-02-02T10:36:46.564Z,4.90
2023-02-02T10:39:24.580Z,5.30
2023-02-02T10:42:29.635Z,5.40
2023-02-02T10:45:20.584Z,5.40
2023-02-02T10:47:47.482Z,5.10
2023-02-02T10:50:14.291Z,4.90
2023-02-02T10:52:46.340Z,4.70
2023-02-02T10:55:37.038Z,4.60
2023-02-02T10:58:12.991Z,4.40
2023-02-02T11:00:50.638Z,4.50
2023-02-02T11:03:20.207Z,4.50
2023-02-02T11:06:06.042Z,4.70
2023-02-02T11:08:42.306Z,4.90
2023-02-02T11:11:11.189Z,5.40
2023-02-02T11:13:44.183Z,5.60
2023-02-02T11:16:17.023Z,5.60
2023-02-02T11:18:45.758Z,5.50
2023-02-02T11:21:21.647Z,5.30
2023-02-02T11:24:14.620Z,5.20
2023-02-02T11:26:47.527Z,5.00
2023-02-02T11:29:18.640Z,4.90
2023-02-02T11:31:45.749Z,4.70
2023-02-02T11:34:28.295Z,4.60
2023-02-02T11:37:05.754Z,4.80
2023-02-02T11:39:32.525Z,4.80
2023-02-02T11:42:06.382Z,5.10
2023-02-02T11:44:35.787Z,5.10
2023-02-02T11:47:05.444Z,5.00
2023-02-02T11:49:43.259Z,5.10
2023-02-02T11:52:18.960Z,5.00
2023-02-02T11:54:49.236Z,5.10
2023-02-02T11:57:22.126Z,5.10
2023-02-02T12:00:27.351Z,5.10
2023-02-02T12:02:54.503Z,5.10
2023-02-02T12:05:21.138Z,5.00
2023-02-02T12:07:49.130Z,5.10
2023-02-02T12:10:44.004Z,5.20
2023-02-02T12:13:34.770Z,5.10
2023-02-02T12:16:26.229Z,5.10
2023-02-02T12:19:19.044Z,5.10
2023-02-02T12:22:15.777Z,5.10
2023-02-02T12:25:14.882Z,5.00
2023-02-02T12:28:03.732Z,5.00
2023-02-02T12:31:09.184Z,5.10
2023-02-02T12:33:38.737Z,5.00
2023-02-02T12:36:30.550Z,5.00
2023-02-02T12:39:32.629Z,4.90
2023-02-02T12:42:25.111Z,4.90
2023-02-02T12:45:10.117Z,4.90
2023-02-02T12:47:52.035Z,4.90
2023-02-02T12:50:34.064Z,4.80
2023-02-02T12:53:18.665Z,4.60
2023-02-02T12:55:52.857Z,4.60
2023-02-02T12:58:38.993Z,4.60
2023-02-02T13:01:43.023Z,4.50
2023-02-02T13:04:21.872Z,4.40
2023-02-02T13:07:18.159Z,4.40
2023-02-02T13:10:06.152Z,4.50
2023-02-02T13:12:38.359Z,4.60
2023-02-02T13:15:10.030Z,4.60
2023-02-02T13:17:45.129Z,4.60
2023-02-02T13:20:34.467Z,4.60
2023-02-02T13:23:09.048Z,4.60
2023-02-02T13:25:42.343Z,4.50
2023-02-02T13:28:18.582Z,4.50
2023-02-02T13:30:47.781Z,4.50
2023-02-02T13:33:20.117Z,4.30
2023-02-02T13:35:56.545Z,4.30
2023-02-02T13:38:25.503Z,4.40
2023-02-02T13:40:55.633Z,4.30
2023-02-02T13:43:51.603Z,4.20
2023-02-02T13:46:27.316Z,4.20
2023-02-02T13:49:10.797Z,4.20
2023-02-02T13:52:02.045Z,4.00
2023-02-02T13:54:40.984Z,3.90
2023-02-02T13:57:28.229Z,3.70
2023-02-02T14:00:15.434Z,3.70
2023-02-02T14:02:44.235Z,3.60
2023-02-02T14:05:22.120Z,3.50
2023-02-02T14:07:49.398Z,3.50
2023-02-02T14:10:31.708Z,3.50
2023-02-02T14:13:34.714Z,3.50
2023-02-02T14:16:06.079Z,3.70
2023-02-02T14:19:06.696Z,3.60
2023-02-02T14:21:33.486Z,3.70
2023-02-02T14:24:05.409Z,3.70
2023-02-02T14:26:59.560Z,3.80
2023-02-02T14:29:31.461Z,3.60
2023-02-02T14:32:27.833Z,3.60
2023-02-02T14:35:20.362Z,3.50
2023-02-02T14:38:08.144Z,3.50
2023-02-02T14:41:10.386Z,3.50
2023-02-02T14:43:49.654Z,3.30
2023-02-02T14:46:23.432Z,3.30
2023-02-02T14:48:57.191Z,3.40
2023-02-02T14:51:26.917Z,3.30
2023-02-02T14:54:01.251Z,3.30
2023-02-02T14:56:45.601Z,3.30
2023-02-02T14:59:20.277Z,3.30
2023-02-02T15:01:59.587Z,3.40
2023-02-02T15:04:28.476Z,3.30
2023-02-02T15:06:55.991Z,3.30
2023-02-02T15:09:29.368Z,3.10
2023-02-02T15:12:01.013Z,3.00
2023-02-02T15:14:52.892Z,3.10
2023-02-02T15:17:28.575Z,2.90
2023-02-02T15:20:13.871Z,2.90
2023-02-02T15:22:53.853Z,2.80
2023-02-02T15:25:49.613Z,2.80
2023-02-02T15:28:47.314Z,2.80
2023-02-02T15:31:20.372Z,2.70
2023-02-02T15:33:53.696Z,2.70
2023-02-02T15:36:26.701Z,2.60
2023-02-02T15:38:57.879Z,2.60
2023-02-02T15:41:32.863Z,2.60
2023-02-02T15:44:02.347Z,2.60
2023-02-02T15:46:35.127Z,2.50
2023-02-02T15:49:33.267Z,2.40
2023-02-02T15:52:10.190Z,2.60
2023-02-02T15:54:39.553Z,2.70
2023-02-02T15:57:33.830Z,2.60
2023-02-02T16:00:20.840Z,2.50
2023-02-02T16:02:52.112Z,2.50
2023-02-02T16:05:25.198Z,2.50
2023-02-02T16:08:03.706Z,2.40
2023-02-02T16:10:31.924Z,2.30
2023-02-02T16:12:58.981Z,2.30
2023-02-02T16:15:28.377Z,2.20
2023-02-02T16:18:00.763Z,2.20
2023-02-02T16:20:31.444Z,2.30
2023-02-02T16:23:04.347Z,2.20
2023-02-02T16:25:34.633Z,2.20
2023-02-02T16:28:03.289Z,2.20
2023-02-02T16:30:33.192Z,2.20
2023-02-02T16:33:26.720Z,2.20
2023-02-02T16:35:54.189Z,2.10
2023-02-02T16:38:30.660Z,2.20
2023-02-02T16:41:24.641Z,2.30
2023-02-02T16:43:51.693Z,2.40
2023-02-02T16:46:45.965Z,2.50
2023-02-02T16:49:23.443Z,2.50
2023-02-02T16:52:09.971Z,2.50
2023-02-02T16:54:37.097Z,2.50
2023-02-02T16:57:04.740Z,2.60
2023-02-02T16:59:37.713Z,2.60
2023-02-02T17:02:35.466Z,2.70
2023-02-02T17:05:07.802Z,2.70
2023-02-02T17:07:37.945Z,2.60
2023-02-02T17:10:24.235Z,2.60
2023-02-02T17:12:51.065Z,2.60
2023-02-02T17:15:17.894Z,2.60
2023-02-02T17:17:47.777Z,2.60
2023-02-02T17:20:19.215Z,2.60
2023-02-02T17:22:53.209Z,2.50
2023-02-02T17:25:27.786Z,2.50
2023-02-02T17:27:55.924Z,2.60
2023-02-02T17:30:22.947Z,2.40
2023-02-02T17:32:49.701Z,2.40
2023-02-02T17:35:19.421Z,2.40
2023-02-02T17:37:46.316Z,2.30
2023-02-02T17:40:17.848Z,2.30
2023-02-02T17:42:47.190Z,2.30
2023-02-02T17:45:20.171Z,2.30
2023-02-02T17:47:47.158Z,2.50
2023-02-02T17:50:14.237Z,2.40
2023-02-02T17:52:41.442Z,2.40
2023-02-02T17:55:21.355Z,2.40
2023-02-02T17:57:52.710Z,2.40
2023-02-02T18:00:22.930Z,2.40
2023-02-02T18:02:57.595Z,2.40
2023-02-02T18:05:24.750Z,2.40
2023-02-02T18:07:51.935Z,2.40
2023-02-02T18:10:19.531Z,2.50
2023-02-02T18:12:46.283Z,2.40
2023-02-02T18:15:14.827Z,2.30
2023-02-02T18:17:42.277Z,2.30
2023-02-02T18:20:10.542Z,2.30
2023-02-02T18:22:38.279Z,2.30
2023-02-02T18:25:06.095Z,2.40
2023-02-02T18:27:33.016Z,2.40
2023-02-02T18:29:59.915Z,2.40
2023-02-02T18:32:26.764Z,2.40
2023-02-02T18:34:55.857Z,2.50
2023-02-02T18:37:28.339Z,2.40
2023-02-02T18:39:55.202Z,2.40
2023-02-02T18:42:22.221Z,2.40
2023-02-02T18:44:49.024Z,2.40
2023-02-02T18:47:15.929Z,2.40
2023-02-02T18:49:42.758Z,2.30
2023-02-02T18:52:09.475Z,2.30
2023-02-02T18:54:36.368Z,2.30
2023-02-02T18:57:03.307Z,2.40
2023-02-02T18:59:32.401Z,2.40
2023-02-02T19:01:59.202Z,2.30
2023-02-02T19:04:26.084Z,2.30
2023-02-02T19:07:11.586Z,2.30
2023-02-02T19:09:38.388Z,2.30
2023-02-02T19:12:12.748Z,2.30
2023-02-02T19:14:40.744Z,2.40
2023-02-02T19:17:24.703Z,2.40
2023-02-02T19:19:51.513Z,2.30
2023-02-02T19:22:26.989Z,2.30
2023-02-02T19:24:54.006Z,2.30
2023-02-02T19:27:23.557Z,2.30
2023-02-02T19:29:54.113Z,2.40
2023-02-02T19:32:23.535Z,2.40
2023-02-02T19:34:53.280Z,2.30
2023-02-02T19:37:24.889Z,2.30
2023-02-02T19:40:09.071Z,2.40
2023-02-02T19:42:44.443Z,2.40
2023-02-02T19:45:33.166Z,2.40
2023-02-02T19:48:06.919Z,2.40
2023-02-02T19:50:42.258Z,2.40
2023-02-02T19:53:14.924Z,2.40
2023-02-02T19:55:44.106Z,2.40
2023-02-02T19:58:16.835Z,2.50
2023-02-02T20:00:45.001Z,2.50
2023-02-02T20:03:17.466Z,2.60
2023-02-02T20:05:47.306Z,2.50
2023-02-02T20:08:43.077Z,2.50
2023-02-02T20:11:36.137Z,2.50
2023-02-02T20:14:19.253Z,2.50
2023-02-02T20:16:52.579Z,2.40
2023-02-02T20:19:35.276Z,2.50
2023-02-02T20:22:03.526Z,2.60
2023-02-02T20:24:42.401Z,2.50
2023-02-02T20:27:22.774Z,2.50
2023-02-02T20:29:51.596Z,2.50
2023-02-02T20:32:26.611Z,2.50
2023-02-02T20:34:56.994Z,2.40
2023-02-02T20:37:29.314Z,2.30
2023-02-02T20:39:58.857Z,2.30
2023-02-02T20:42:25.907Z,2.40
2023-02-02T20:44:52.961Z,2.30
2023-02-02T20:47:20.176Z,2.30
2023-02-02T20:49:47.593Z,2.30
2023-02-02T20:52:24.085Z,2.30
2023-02-02T20:54:52.062Z,2.40
2023-02-02T20:57:19.062Z,2.40
2023-02-02T20:59:45.786Z,2.30
2023-02-02T21:02:19.378Z,2.30
2023-02-02T21:04:51.527Z,2.30
2023-02-02T21:07:20.968Z,2.30
2023-02-02T21:09:49.986Z,2.30
2023-02-02T21:12:17.763Z,2.40
2023-02-02T21:14:47.744Z,2.40
2023-02-02T21:17:16.049Z,2.30
2023-02-02T21:19:43.572Z,2.30
2023-02-02T21:22:11.132Z,2.30
2023-02-02T21:24:38.268Z,2.30
2023-02-02T21:27:05.255Z,2.30
2023-02-02T21:29:33.129Z,2.30
2023-02-02T21:32:02.754Z,2.30
2023-02-02T21:34:31.036Z,2.30
2023-02-02T21:36:58.905Z,2.30
2023-02-02T21:39:30.477Z,2.30
2023-02-02T21:42:09.571Z,2.20
2023-02-02T21:44:57.943Z,2.30
2023-02-02T21:47:33.977Z,2.40
2023-02-02T21:50:17.480Z,2.30
2023-02-02T21:52:45.071Z,2.30
2023-02-02T21:55:41.467Z,2.30
2023-02-02T21:58:14.098Z,2.30
2023-02-02T22:00:40.995Z,2.20
2023-02-02T22:03:34.290Z,2.20
2023-02-02T22:06:35.770Z,2.20
2023-02-02T22:09:02.449Z,2.20
2023-02-02T22:11:37.282Z,2.20
2023-02-02T22:14:16.952Z,2.10
2023-02-02T22:16:48.708Z,2.10
2023-02-02T22:19:43.506Z,2.20
2023-02-02T22:22:19.077Z,2.20
2023-02-02T22:24:51.012Z,2.20
2023-02-02T22:27:23.910Z,2.20
2023-02-02T22:29:56.873Z,2.20
2023-02-02T22:32:23.568Z,2.20
2023-02-02T22:34:50.317Z,2.30
2023-02-02T22:37:17.034Z,2.30
2023-02-02T22:39:43.758Z,2.30
2023-02-02T22:42:10.846Z,2.20
2023-02-02T22:44:37.602Z,2.30
2023-02-02T22:47:04.588Z,2.30
2023-02-02T22:49:31.492Z,2.30
2023-02-02T22:51:58.241Z,2.40
2023-02-02T22:54:24.975Z,2.40
2023-02-02T22:56:51.665Z,2.40
2023-02-02T22:59:18.417Z,2.40
2023-02-02T23:01:45.106Z,2.40
2023-02-02T23:04:12.026Z,2.30
2023-02-02T23:06:38.851Z,2.40
2023-02-02T23:09:05.525Z,2.50
2023-02-02T23:11:32.278Z,2.50
2023-02-02T23:13:58.961Z,2.50
2023-02-02T23:16:25.701Z,2.40
2023-02-02T23:18:52.479Z,2.40
2023-02-02T23:21:19.225Z,2.40
2023-02-02T23:23:45.928Z,2.40
2023-02-02T23:26:12.635Z,2.30
2023-02-02T23:28:39.399Z,2.30
2023-02-02T23:31:06.370Z,2.30
2023-02-02T23:33:33.253Z,2.30
2023-02-02T23:35:59.988Z,2.20
2023-02-02T23:38:26.697Z,2.20
2023-02-02T23:40:53.476Z,2.30
2023-02-02T23:43:20.203Z,2.30
2023-02-02T23:45:46.930Z,2.30
2023-02-02T23:48:13.820Z,2.30
2023-02-02T23:50:40.890Z,2.40
2023-02-02T23:53:09.737Z,2.30
2023-02-02T23:55:37.163Z,2.30
2023-02-02T23:58:04.069Z,2.30
